createdAt,value
2022-11-26T00:02:26.593Z,99237.28
2022-11-26T00:04:53.757Z,99247.50
2022-11-26T00:07:26.658Z,99255.66
2022-11-26T00:09:53.815Z,99259.00
2022-11-26T00:12:20.314Z,99258.28
2022-11-26T00:14:52.077Z,99252.38
2022-11-26T00:17:18.843Z,99254.28
2022-11-26T00:19:45.454Z,99265.06
2022-11-26T00:22:18.023Z,99265.75
2022-11-26T00:24:45.115Z,99271.50
2022-11-26T00:27:11.666Z,99264.75
2022-11-26T00:29:38.634Z,99264.81
2022-11-26T00:32:06.175Z,99265.06
2022-11-26T00:34:32.723Z,99272.25
2022-11-26T00:36:59.211Z,99269.59
2022-11-26T00:39:25.741Z,99272.84
2022-11-26T00:41:52.746Z,99280.53
2022-11-26T00:44:22.681Z,99280.53
2022-11-26T00:46:49.572Z,99287.38
2022-11-26T00:49:16.580Z,99291.00
2022-11-26T00:51:43.467Z,99296.38
2022-11-26T00:54:10.456Z,99296.59
2022-11-26T00:56:38.280Z,99300.72
2022-11-26T00:59:05.020Z,99306.31
2022-11-26T01:01:33.002Z,99301.03
2022-11-26T01:03:59.641Z,99303.19
2022-11-26T01:06:33.233Z,99307.09
2022-11-26T01:08:59.778Z,99320.44
2022-11-26T01:11:26.482Z,99318.53
2022-11-26T01:13:54.149Z,99323.78
2022-11-26T01:16:22.756Z,99331.59
2022-11-26T01:18:50.009Z,99334.44
2022-11-26T01:21:17.327Z,99336.38
2022-11-26T01:23:43.899Z,99336.50
2022-11-26T01:26:17.451Z,99341.59
2022-11-26T01:28:44.517Z,99345.56
2022-11-26T01:31:21.574Z,99349.91
2022-11-26T01:33:48.237Z,99347.84
2022-11-26T01:36:23.943Z,99347.28
2022-11-26T01:38:55.803Z,99358.47
2022-11-26T01:41:34.807Z,99355.66
2022-11-26T01:44:01.360Z,99357.81
2022-11-26T01:46:30.108Z,99360.94
2022-11-26T01:49:17.748Z,99369.59
2022-11-26T01:51:44.375Z,99374.41
2022-11-26T01:54:11.187Z,99368.31
2022-11-26T01:56:38.455Z,99383.91
2022-11-26T01:59:08.181Z,99378.91
2022-11-26T02:01:34.797Z,99380.44
2022-11-26T02:04:20.615Z,99382.00
2022-11-26T02:06:48.302Z,99369.81
2022-11-26T02:09:15.192Z,99376.25
2022-11-26T02:11:41.857Z,99379.69
2022-11-26T02:14:12.890Z,99383.06
2022-11-26T02:16:45.364Z,99378.03
2022-11-26T02:19:32.264Z,99379.69
2022-11-26T02:22:19.058Z,99390.50
2022-11-26T02:25:08.674Z,99391.22
2022-11-26T02:27:50.401Z,99387.84
2022-11-26T02:30:17.378Z,99396.13
2022-11-26T02:32:50.008Z,99399.72
2022-11-26T02:35:19.475Z,99405.38
2022-11-26T02:37:52.006Z,99413.72
2022-11-26T02:40:18.697Z,99414.34
2022-11-26T02:42:45.244Z,99412.78
2022-11-26T02:45:13.504Z,99420.56
2022-11-26T02:47:41.085Z,99434.97
2022-11-26T02:50:09.005Z,99429.06
2022-11-26T02:52:35.479Z,99437.47
2022-11-26T02:55:02.140Z,99438.19
2022-11-26T02:57:29.297Z,99442.25
2022-11-26T02:59:55.787Z,99444.56
2022-11-26T03:02:26.522Z,99443.63
2022-11-26T03:04:54.319Z,99455.81
2022-11-26T03:07:21.191Z,99456.06
2022-11-26T03:09:52.238Z,99451.16
2022-11-26T03:12:19.566Z,99458.72
2022-11-26T03:14:46.069Z,99455.94
2022-11-26T03:17:12.586Z,99466.38
2022-11-26T03:19:39.168Z,99464.91
2022-11-26T03:22:05.681Z,99462.09
2022-11-26T03:24:32.601Z,99477.28
2022-11-26T03:26:59.345Z,99473.50
2022-11-26T03:29:25.999Z,99469.13
2022-11-26T03:31:52.859Z,99470.31
2022-11-26T03:34:20.107Z,99472.72
2022-11-26T03:36:46.643Z,99469.06
2022-11-26T03:39:13.347Z,99475.28
2022-11-26T03:41:42.547Z,99473.34
2022-11-26T03:44:09.087Z,99478.44
2022-11-26T03:46:35.640Z,99478.50
2022-11-26T03:49:02.114Z,99486.97
2022-11-26T03:51:28.632Z,99479.06
2022-11-26T03:53:55.141Z,99486.75
2022-11-26T03:56:21.678Z,99486.50
2022-11-26T03:58:48.256Z,99487.13
2022-11-26T04:01:14.856Z,99487.88
2022-11-26T04:03:41.504Z,99487.38
2022-11-26T04:06:08.351Z,99485.94
2022-11-26T04:08:34.955Z,99488.38
2022-11-26T04:11:01.496Z,99483.97
2022-11-26T04:13:27.979Z,99489.22
2022-11-26T04:15:54.511Z,99492.38
2022-11-26T04:18:21.066Z,99488.00
2022-11-26T04:20:52.631Z,99493.78
2022-11-26T04:23:19.943Z,99492.75
2022-11-26T04:25:46.728Z,99498.63
2022-11-26T04:28:13.760Z,99490.84
2022-11-26T04:30:40.262Z,99492.84
2022-11-26T04:33:06.821Z,99487.91
2022-11-26T04:35:33.349Z,99488.50
2022-11-26T04:37:59.849Z,99485.50
2022-11-26T04:40:26.317Z,99498.09
2022-11-26T04:42:52.870Z,99493.97
2022-11-26T04:45:19.400Z,99499.75
2022-11-26T04:47:45.918Z,99504.69
2022-11-26T04:50:12.569Z,99508.25
2022-11-26T04:52:39.063Z,99509.38
2022-11-26T04:55:05.760Z,99505.28
2022-11-26T04:57:32.306Z,99510.28
2022-11-26T04:59:58.860Z,99516.56
2022-11-26T05:02:25.626Z,99517.03
2022-11-26T05:04:52.698Z,99519.00
2022-11-26T05:07:19.279Z,99514.59
2022-11-26T05:09:45.860Z,99512.69
2022-11-26T05:12:12.861Z,99518.25
2022-11-26T05:14:39.752Z,99519.00
2022-11-26T05:17:06.606Z,99526.94
2022-11-26T05:19:34.196Z,99531.06
2022-11-26T05:22:00.720Z,99529.19
2022-11-26T05:24:27.475Z,99527.94
2022-11-26T05:26:57.097Z,99529.09
2022-11-26T05:29:24.186Z,99526.78
2022-11-26T05:31:50.917Z,99524.25
2022-11-26T05:34:17.513Z,99527.22
2022-11-26T05:36:44.051Z,99527.56
2022-11-26T05:39:10.777Z,99525.78
2022-11-26T05:41:37.326Z,99542.47
2022-11-26T05:44:04.276Z,99543.97
2022-11-26T05:46:30.775Z,99547.13
2022-11-26T05:48:57.407Z,99545.78
2022-11-26T05:51:23.966Z,99548.16
2022-11-26T05:53:50.451Z,99553.13
2022-11-26T05:56:17.066Z,99548.59
2022-11-26T05:58:43.600Z,99560.81
2022-11-26T06:01:10.417Z,99556.38
2022-11-26T06:03:37.903Z,99561.31
2022-11-26T06:06:04.760Z,99555.84
2022-11-26T06:08:31.898Z,99557.31
2022-11-26T06:13:25.059Z,99561.59
2022-11-26T06:15:51.630Z,99567.19
2022-11-26T06:18:18.265Z,99567.09
2022-11-26T06:20:44.860Z,99569.53
2022-11-26T06:23:11.409Z,99570.28
2022-11-26T06:25:39.848Z,99573.91
2022-11-26T06:28:06.444Z,99573.63
2022-11-26T06:30:33.068Z,99576.13
2022-11-26T06:32:59.874Z,99575.97
2022-11-26T06:35:26.605Z,99566.34
2022-11-26T06:37:53.092Z,99574.44
2022-11-26T06:40:19.931Z,99572.72
2022-11-26T06:42:50.102Z,99578.59
2022-11-26T06:45:16.753Z,99595.50
2022-11-26T06:47:43.232Z,99587.53
2022-11-26T06:50:11.015Z,99597.75
2022-11-26T06:52:37.626Z,99600.81
2022-11-26T06:55:04.309Z,99601.41
2022-11-26T06:57:30.842Z,99609.25
2022-11-26T06:59:57.402Z,99615.06
2022-11-26T07:02:23.998Z,99609.97
2022-11-26T07:04:50.511Z,99621.53
2022-11-26T07:07:17.485Z,99614.06
2022-11-26T07:09:44.028Z,99628.50
2022-11-26T07:12:10.756Z,99626.75
2022-11-26T07:14:37.832Z,99630.16
2022-11-26T07:17:05.265Z,99634.69
2022-11-26T07:19:32.467Z,99649.88
2022-11-26T07:21:59.032Z,99650.34
2022-11-26T07:24:25.573Z,99644.72
2022-11-26T07:26:52.355Z,99652.06
2022-11-26T07:29:18.865Z,99657.31
2022-11-26T07:31:45.448Z,99667.78
2022-11-26T07:34:12.051Z,99667.09
2022-11-26T07:36:43.100Z,99673.41
2022-11-26T07:39:09.901Z,99677.53
2022-11-26T07:41:36.655Z,99684.66
2022-11-26T07:44:03.571Z,99681.31
2022-11-26T07:46:30.585Z,99691.66
2022-11-26T07:48:57.566Z,99689.44
2022-11-26T07:51:25.195Z,99700.63
2022-11-26T07:53:51.816Z,99702.72
2022-11-26T07:56:18.532Z,99707.88
2022-11-26T07:58:45.341Z,99699.56
2022-11-26T08:01:15.876Z,99699.34
2022-11-26T08:03:43.855Z,99697.44
2022-11-26T08:06:12.149Z,99704.19
2022-11-26T08:08:38.942Z,99697.09
2022-11-26T08:11:10.011Z,99702.16
2022-11-26T08:13:36.673Z,99707.97
2022-11-26T08:16:04.055Z,99706.91
2022-11-26T08:18:30.676Z,99710.06
2022-11-26T08:20:57.565Z,99711.09
2022-11-26T08:23:24.439Z,99710.06
2022-11-26T08:26:20.447Z,99709.22
2022-11-26T08:28:38.025Z,99713.66
2022-11-26T08:31:07.058Z,99711.53
2022-11-26T08:33:33.915Z,99718.16
2022-11-26T08:36:07.185Z,99714.53
2022-11-26T08:38:34.971Z,99722.72
2022-11-26T08:41:02.175Z,99718.69
2022-11-26T08:43:45.297Z,99723.25
2022-11-26T08:46:16.625Z,99730.69
2022-11-26T08:48:48.151Z,99728.41
2022-11-26T08:51:23.708Z,99730.94
2022-11-26T08:53:50.843Z,99738.28
2022-11-26T08:56:21.104Z,99733.50
2022-11-26T08:58:49.187Z,99731.66
2022-11-26T09:01:17.123Z,99739.63
2022-11-26T09:03:43.894Z,99739.03
2022-11-26T09:06:10.694Z,99734.97
2022-11-26T09:08:57.064Z,99732.38
2022-11-26T09:11:23.922Z,99743.25
2022-11-26T09:13:50.598Z,99736.16
2022-11-26T09:16:17.178Z,99733.13
2022-11-26T09:18:43.831Z,99732.91
2022-11-26T09:21:10.766Z,99727.56
2022-11-26T09:23:37.806Z,99723.63
2022-11-26T09:26:04.365Z,99717.09
2022-11-26T09:28:35.293Z,99716.16
2022-11-26T09:31:04.325Z,99718.88
2022-11-26T09:33:30.998Z,99719.00
2022-11-26T09:36:07.488Z,99724.44
2022-11-26T09:38:36.287Z,99721.72
2022-11-26T09:41:12.335Z,99722.06
2022-11-26T09:43:39.016Z,99719.53
2022-11-26T09:46:05.587Z,99728.69
2022-11-26T09:48:32.620Z,99727.00
2022-11-26T09:51:07.521Z,99730.41
2022-11-26T09:53:41.974Z,99725.78
2022-11-26T09:56:13.742Z,99733.25
2022-11-26T09:59:01.790Z,99728.84
2022-11-26T10:01:28.734Z,99733.88
2022-11-26T10:03:55.262Z,99736.53
2022-11-26T10:06:24.860Z,99734.69
2022-11-26T10:09:09.366Z,99736.31
2022-11-26T10:11:38.993Z,99733.22
2022-11-26T10:14:05.452Z,99730.84
2022-11-26T10:16:40.931Z,99724.13
2022-11-26T10:19:13.401Z,99728.19
2022-11-26T10:24:32.479Z,99733.25
2022-11-26T10:27:04.495Z,99727.75
2022-11-26T10:29:35.412Z,99727.72
2022-11-26T10:32:04.584Z,99733.03
2022-11-26T10:34:39.462Z,99735.66
2022-11-26T10:37:06.386Z,99729.75
2022-11-26T10:39:32.891Z,99725.72
2022-11-26T10:42:17.641Z,99730.50
2022-11-26T10:44:44.603Z,99728.44
2022-11-26T10:47:19.818Z,99735.78
2022-11-26T10:49:46.411Z,99732.16
2022-11-26T10:52:13.107Z,99718.81
2022-11-26T10:54:41.499Z,99725.88
2022-11-26T10:57:16.093Z,99730.31
2022-11-26T10:59:50.496Z,99727.59
2022-11-26T11:02:20.050Z,99726.50
2022-11-26T11:04:48.431Z,99712.66
2022-11-26T11:07:30.772Z,99716.88
2022-11-26T11:10:06.248Z,99714.69
2022-11-26T11:12:32.858Z,99724.03
2022-11-26T11:15:13.118Z,99719.28
2022-11-26T11:17:40.073Z,99720.34
2022-11-26T11:20:16.174Z,99712.84
2022-11-26T11:22:45.821Z,99710.00
2022-11-26T11:25:22.499Z,99708.34
2022-11-26T11:27:49.229Z,99706.94
2022-11-26T11:30:25.631Z,99717.47
2022-11-26T11:32:54.646Z,99710.53
2022-11-26T11:35:23.463Z,99713.31
2022-11-26T11:37:51.261Z,99705.44
2022-11-26T11:40:25.371Z,99706.16
2022-11-26T11:42:53.958Z,99704.84
2022-11-26T11:45:22.881Z,99702.19
2022-11-26T11:47:51.090Z,99699.28
2022-11-26T11:50:21.636Z,99692.19
2022-11-26T11:52:54.790Z,99695.19
2022-11-26T11:55:21.243Z,99692.63
2022-11-26T11:57:47.744Z,99691.84
2022-11-26T12:00:14.706Z,99686.25
2022-11-26T12:02:57.004Z,99691.47
2022-11-26T12:05:26.700Z,99686.88
2022-11-26T12:07:54.226Z,99689.28
2022-11-26T12:10:23.403Z,99684.41
2022-11-26T12:12:52.502Z,99682.41
2022-11-26T12:15:28.227Z,99677.03
2022-11-26T12:18:04.194Z,99672.88
2022-11-26T12:20:31.078Z,99673.72
2022-11-26T12:23:09.054Z,99676.31
2022-11-26T12:25:39.595Z,99677.38
2022-11-26T12:28:15.107Z,99679.13
2022-11-26T12:31:01.487Z,99670.53
2022-11-26T12:33:43.395Z,99679.44
2022-11-26T12:36:15.191Z,99679.16
2022-11-26T12:38:43.772Z,99691.66
2022-11-26T12:41:11.565Z,99686.81
2022-11-26T12:43:49.215Z,99685.25
2022-11-26T12:46:19.893Z,99677.19
2022-11-26T12:48:49.506Z,99675.38
2022-11-26T12:51:30.121Z,99665.25
2022-11-26T12:54:32.278Z,99651.28
2022-11-26T12:57:00.794Z,99658.63
2022-11-26T12:59:36.128Z,99656.00
2022-11-26T13:02:09.432Z,99657.75
2022-11-26T13:04:37.965Z,99664.16
2022-11-26T13:07:08.713Z,99660.31
2022-11-26T13:09:38.697Z,99656.31
2022-11-26T13:12:10.179Z,99658.66
2022-11-26T13:14:52.260Z,99660.94
2022-11-26T13:17:19.482Z,99654.28
2022-11-26T13:19:46.657Z,99649.91
2022-11-26T13:22:13.298Z,99658.88
2022-11-26T13:24:40.120Z,99654.22
2022-11-26T13:27:25.368Z,99657.47
2022-11-26T13:30:17.935Z,99659.97
2022-11-26T13:33:03.020Z,99657.09
2022-11-26T13:35:36.036Z,99649.72
2022-11-26T13:38:05.175Z,99655.03
2022-11-26T13:40:53.588Z,99652.28
2022-11-26T13:43:26.717Z,99647.44
2022-11-26T13:45:56.091Z,99649.13
2022-11-26T13:48:31.459Z,99651.97
2022-11-26T13:50:59.788Z,99647.81
2022-11-26T13:53:31.733Z,99646.22
2022-11-26T13:56:05.188Z,99649.81
2022-11-26T13:58:44.047Z,99641.78
2022-11-26T14:01:26.354Z,99645.03
2022-11-26T14:03:52.917Z,99646.59
2022-11-26T14:06:19.778Z,99651.28
2022-11-26T14:08:47.176Z,99656.44
2022-11-26T14:11:33.621Z,99651.66
2022-11-26T14:14:19.082Z,99651.03
2022-11-26T14:17:01.097Z,99650.22
2022-11-26T14:19:39.854Z,99652.59
2022-11-26T14:22:07.818Z,99657.06
2022-11-26T14:24:49.946Z,99653.44
2022-11-26T14:27:16.923Z,99657.53
2022-11-26T14:29:43.933Z,99659.22
2022-11-26T14:32:15.258Z,99657.53
2022-11-26T14:34:43.527Z,99661.38
2022-11-26T14:37:20.733Z,99653.56
2022-11-26T14:39:57.232Z,99658.72
2022-11-26T14:42:24.236Z,99656.69
2022-11-26T14:45:00.924Z,99662.56
2022-11-26T14:47:27.452Z,99664.84
2022-11-26T14:49:56.331Z,99665.91
2022-11-26T14:52:23.658Z,99674.78
2022-11-26T14:54:53.947Z,99679.66
2022-11-26T14:57:22.185Z,99676.19
2022-11-26T14:59:58.896Z,99675.41
2022-11-26T15:02:26.506Z,99669.41
2022-11-26T15:05:00.138Z,99667.56
2022-11-26T15:07:27.074Z,99665.13
2022-11-26T15:10:04.619Z,99668.34
2022-11-26T15:12:31.241Z,99672.09
2022-11-26T15:14:59.127Z,99672.41
2022-11-26T15:17:26.662Z,99680.22
2022-11-26T15:19:53.268Z,99683.75
2022-11-26T15:22:34.815Z,99680.50
2022-11-26T15:25:01.377Z,99677.97
2022-11-26T15:27:27.846Z,99674.81
2022-11-26T15:29:54.388Z,99673.25
2022-11-26T15:32:24.460Z,99680.09
2022-11-26T15:34:51.067Z,99676.09
2022-11-26T15:37:17.591Z,99676.53
2022-11-26T15:39:44.120Z,99669.41
2022-11-26T15:42:29.953Z,99669.72
2022-11-26T15:44:56.426Z,99660.75
2022-11-26T15:47:23.414Z,99656.38
2022-11-26T15:49:52.091Z,99657.50
2022-11-26T15:52:20.203Z,99653.63
2022-11-26T15:55:12.052Z,99664.78
2022-11-26T15:57:39.953Z,99660.88
2022-11-26T16:00:09.746Z,99661.00
2022-11-26T16:02:36.339Z,99654.16
2022-11-26T16:05:03.588Z,99651.94
2022-11-26T16:07:31.116Z,99663.84
2022-11-26T16:10:15.753Z,99661.94
2022-11-26T16:12:44.852Z,99658.34
2022-11-26T16:15:17.205Z,99662.13
2022-11-26T16:17:44.156Z,99657.19
2022-11-26T16:20:16.209Z,99655.25
2022-11-26T16:22:44.117Z,99650.94
2022-11-26T16:25:19.849Z,99649.56
2022-11-26T16:28:01.243Z,99650.50
2022-11-26T16:30:27.775Z,99640.28
2022-11-26T16:32:54.389Z,99652.50
2022-11-26T16:35:44.173Z,99651.44
2022-11-26T16:38:13.201Z,99649.97
2022-11-26T16:40:39.770Z,99653.66
2022-11-26T16:43:06.305Z,99654.56
2022-11-26T16:45:32.822Z,99654.69
2022-11-26T16:47:59.352Z,99655.00
2022-11-26T16:50:26.483Z,99653.41
2022-11-26T16:52:55.313Z,99657.72
2022-11-26T16:55:25.917Z,99656.13
2022-11-26T16:57:53.314Z,99661.50
2022-11-26T17:00:21.099Z,99658.31
2022-11-26T17:02:47.688Z,99658.13
2022-11-26T17:05:14.892Z,99653.16
2022-11-26T17:07:46.684Z,99651.56
2022-11-26T17:10:14.475Z,99649.88
2022-11-26T17:12:41.247Z,99651.34
2022-11-26T17:15:08.023Z,99648.94
2022-11-26T17:17:34.607Z,99645.03
2022-11-26T17:20:01.153Z,99658.69
2022-11-26T17:22:27.729Z,99661.03
2022-11-26T17:24:54.255Z,99655.91
2022-11-26T17:27:21.001Z,99652.88
2022-11-26T17:29:47.956Z,99655.03
2022-11-26T17:32:17.097Z,99662.44
2022-11-26T17:34:43.984Z,99664.91
2022-11-26T17:37:29.793Z,99665.47
2022-11-26T17:39:56.663Z,99667.00
2022-11-26T17:42:23.958Z,99669.91
2022-11-26T17:44:51.377Z,99679.84
2022-11-26T17:47:19.106Z,99679.00
2022-11-26T17:49:45.897Z,99681.28
2022-11-26T17:52:12.468Z,99682.16
2022-11-26T17:54:39.070Z,99682.97
2022-11-26T17:57:05.719Z,99684.22
2022-11-26T17:59:32.809Z,99678.09
2022-11-26T18:01:59.504Z,99679.41
2022-11-26T18:04:26.079Z,99675.31
2022-11-26T18:07:07.602Z,99680.16
2022-11-26T18:09:34.337Z,99680.44
2022-11-26T18:12:00.971Z,99679.69
2022-11-26T18:14:27.822Z,99675.38
2022-11-26T18:16:54.772Z,99674.59
2022-11-26T18:19:22.333Z,99671.50
2022-11-26T18:21:49.446Z,99677.16
2022-11-26T18:24:16.207Z,99675.66
2022-11-26T18:26:42.741Z,99666.03
2022-11-26T18:29:09.829Z,99669.38
2022-11-26T18:31:39.513Z,99671.88
2022-11-26T18:34:06.744Z,99675.75
2022-11-26T18:36:33.753Z,99673.00
2022-11-26T18:39:00.267Z,99679.47
2022-11-26T18:41:26.776Z,99667.66
2022-11-26T18:43:53.708Z,99676.56
2022-11-26T18:46:20.302Z,99686.41
2022-11-26T18:48:48.948Z,99686.78
2022-11-26T18:51:15.757Z,99680.91
2022-11-26T18:53:42.628Z,99681.91
2022-11-26T18:56:13.790Z,99685.75
2022-11-26T18:58:44.044Z,99677.78
2022-11-26T19:01:14.663Z,99678.72
2022-11-26T19:03:44.111Z,99678.25
2022-11-26T19:06:14.516Z,99667.38
2022-11-26T19:08:41.084Z,99667.94
2022-11-26T19:11:08.642Z,99671.03
2022-11-26T19:13:35.623Z,99666.44
2022-11-26T19:16:05.894Z,99655.94
2022-11-26T19:18:32.395Z,99648.53
2022-11-26T19:20:59.098Z,99653.00
2022-11-26T19:23:28.296Z,99656.41
2022-11-26T19:25:55.647Z,99657.81
2022-11-26T19:28:26.810Z,99649.66
2022-11-26T19:30:57.904Z,99652.84
2022-11-26T19:33:24.623Z,99659.97
2022-11-26T19:35:51.259Z,99652.56
2022-11-26T19:38:17.785Z,99646.00
2022-11-26T19:40:44.292Z,99643.66
2022-11-26T19:43:10.838Z,99640.44
2022-11-26T19:45:37.405Z,99636.81
2022-11-26T19:48:04.020Z,99633.34
2022-11-26T19:50:30.696Z,99632.03
2022-11-26T19:52:57.447Z,99629.84
2022-11-26T19:55:24.005Z,99635.53
2022-11-26T19:57:50.783Z,99635.63
2022-11-26T20:00:17.401Z,99641.00
2022-11-26T20:02:44.141Z,99629.72
2022-11-26T20:05:10.786Z,99632.94
2022-11-26T20:07:37.394Z,99630.06
2022-11-26T20:10:04.381Z,99632.44
2022-11-26T20:12:31.042Z,99622.03
2022-11-26T20:15:00.400Z,99630.31
2022-11-26T20:17:30.199Z,99621.47
2022-11-26T20:19:56.817Z,99611.88
2022-11-26T20:22:27.708Z,99613.31
2022-11-26T20:24:54.519Z,99619.69
2022-11-26T20:27:21.065Z,99621.34
2022-11-26T20:29:47.647Z,99618.59
2022-11-26T20:32:14.813Z,99625.75
2022-11-26T20:34:41.433Z,99633.50
2022-11-26T20:37:07.931Z,99624.34
2022-11-26T20:39:34.470Z,99621.84
2022-11-26T20:42:00.991Z,99631.00
2022-11-26T20:44:28.636Z,99622.97
2022-11-26T20:46:57.064Z,99626.47
2022-11-26T20:49:23.840Z,99616.09
2022-11-26T20:51:50.412Z,99618.13
2022-11-26T20:54:16.913Z,99617.47
2022-11-26T20:56:43.840Z,99623.84
2022-11-26T20:59:10.684Z,99621.47
2022-11-26T21:01:37.349Z,99615.03
2022-11-26T21:04:04.027Z,99607.41
2022-11-26T21:06:31.553Z,99603.91
2022-11-26T21:09:01.874Z,99598.69
2022-11-26T21:11:28.825Z,99596.41
2022-11-26T21:13:55.451Z,99600.88
2022-11-26T21:16:23.363Z,99614.56
2022-11-26T21:18:51.901Z,99613.56
2022-11-26T21:21:18.510Z,99611.88
2022-11-26T21:23:45.647Z,99609.72
2022-11-26T21:26:17.328Z,99612.34
2022-11-26T21:28:43.859Z,99597.72
2022-11-26T21:31:13.822Z,99607.50
2022-11-26T21:33:48.046Z,99614.53
2022-11-26T21:36:15.664Z,99618.00
2022-11-26T21:38:43.399Z,99614.81
2022-11-26T21:41:13.602Z,99616.41
2022-11-26T21:43:40.366Z,99621.63
2022-11-26T21:46:16.208Z,99626.28
2022-11-26T21:48:43.542Z,99627.69
2022-11-26T21:51:12.420Z,99624.09
2022-11-26T21:53:39.100Z,99635.09
2022-11-26T21:56:06.667Z,99631.88
2022-11-26T21:58:35.781Z,99628.75
2022-11-26T22:01:12.552Z,99624.06
2022-11-26T22:03:39.738Z,99626.50
2022-11-26T22:06:06.539Z,99620.84
2022-11-26T22:08:33.138Z,99630.19
2022-11-26T22:10:59.827Z,99629.56
2022-11-26T22:13:26.401Z,99633.34
2022-11-26T22:15:52.968Z,99638.69
2022-11-26T22:18:19.525Z,99638.03
2022-11-26T22:20:49.859Z,99624.53
2022-11-26T22:23:16.540Z,99634.63
2022-11-26T22:25:45.076Z,99633.19
2022-11-26T22:28:12.749Z,99634.19
2022-11-26T22:30:39.298Z,99639.75
2022-11-26T22:33:05.817Z,99631.13
2022-11-26T22:35:33.496Z,99632.72
2022-11-26T22:38:00.007Z,99625.00
2022-11-26T22:40:26.745Z,99627.50
2022-11-26T22:42:55.335Z,99624.44
2022-11-26T22:45:22.611Z,99631.00
2022-11-26T22:47:52.711Z,99625.34
2022-11-26T22:50:19.625Z,99632.19
2022-11-26T22:52:46.174Z,99629.84
2022-11-26T22:55:12.747Z,99631.47
2022-11-26T22:57:39.460Z,99625.41
2022-11-26T23:00:07.269Z,99623.59
2022-11-26T23:02:34.101Z,99626.19
2022-11-26T23:05:02.082Z,99628.44
2022-11-26T23:07:28.741Z,99629.97
2022-11-26T23:09:55.443Z,99636.88
2022-11-26T23:12:22.946Z,99632.63
2022-11-26T23:14:49.803Z,99630.75
2022-11-26T23:17:16.317Z,99621.41
2022-11-26T23:19:43.480Z,99617.59
2022-11-26T23:22:10.034Z,99620.97
2022-11-26T23:24:36.592Z,99616.19
2022-11-26T23:27:03.792Z,99612.00
2022-11-26T23:29:30.578Z,99605.38
2022-11-26T23:31:57.273Z,99603.31
2022-11-26T23:34:23.885Z,99599.09
2022-11-26T23:36:50.495Z,99594.84
2022-11-26T23:39:17.400Z,99595.59
2022-11-26T23:41:44.720Z,99585.38
2022-11-26T23:44:11.249Z,99575.78
2022-11-26T23:46:37.829Z,99573.84
2022-11-26T23:49:04.745Z,99572.19
2022-11-26T23:51:32.420Z,99565.84
2022-11-26T23:53:59.033Z,99562.78
2022-11-26T23:56:27.051Z,99558.38
2022-11-26T23:58:54.610Z,99562.78
